Time;durP1;ratioP1;P1;durP2;ratioP2;P2;SDS_P1;SDS_P2;PMS_P1;PMS_P2;Temp;Humidity;BMP_temperature;BMP_pressure;BME280_temperature;BME280_humidity;BME280_pressure;Samples;Min_cycle;Max_cycle;Signal;HPM_P1;HPM_P2
2024/04/14 04:02:43;;;;;;;0.87;0.83;;;16.30;97.30;;;;;;5361883;21;20616;-87
2024/04/14 04:05:08;;;;;;;1.00;1.00;;;16.20;97.30;;;;;;5343570;26;20479;-87
2024/04/14 04:07:35;;;;;;;2.77;1.23;;;16.20;97.30;;;;;;5279966;27;20236;-87
2024/04/14 04:10:00;;;;;;;1.57;1.47;;;16.10;97.30;;;;;;5294007;27;20632;-86
2024/04/14 04:12:26;;;;;;;2.20;1.63;;;16.10;97.30;;;;;;5306210;26;20704;-87
2024/04/14 04:14:51;;;;;;;0.90;0.90;;;16.10;97.30;;;;;;5337225;26;20650;-86
2024/04/14 04:17:17;;;;;;;1.00;0.97;;;16.10;97.30;;;;;;5324979;26;20577;-86
2024/04/14 04:19:42;;;;;;;0.93;0.83;;;16.10;97.30;;;;;;5324752;26;20587;-86
2024/04/14 04:22:08;;;;;;;1.20;1.10;;;16.10;97.30;;;;;;5306606;26;20321;-87
2024/04/14 04:24:39;;;;;;;1.47;1.33;;;16.00;97.30;;;;;;5315255;26;20231;-86
2024/04/14 04:27:04;;;;;;;1.97;1.43;;;16.00;97.30;;;;;;5330001;26;20235;-86
2024/04/14 04:29:30;;;;;;;1.00;0.90;;;16.00;97.30;;;;;;5323470;26;20588;-86
2024/04/14 04:31:56;;;;;;;1.57;1.43;;;16.00;97.30;;;;;;5308277;26;20240;-86
2024/04/14 04:34:22;;;;;;;1.40;0.90;;;16.00;97.30;;;;;;5322342;26;20996;-86
2024/04/14 04:36:51;;;;;;;1.80;1.70;;;15.90;97.30;;;;;;5309873;26;20570;-86
2024/04/14 04:39:17;;;;;;;4.20;2.17;;;15.90;97.30;;;;;;5310711;26;21048;-88
2024/04/14 04:41:42;;;;;;;1.93;1.07;;;15.90;97.30;;;;;;5336134;26;20847;-86
2024/04/14 04:44:09;;;;;;;2.53;1.90;;;15.90;97.30;;;;;;5310357;26;20497;-87
2024/04/14 04:46:35;;;;;;;3.73;1.63;;;15.90;97.30;;;;;;5307847;26;20240;-87
2024/04/14 04:49:00;;;;;;;1.47;1.40;;;15.90;97.30;;;;;;5309749;26;20447;-88
2024/04/14 04:51:27;;;;;;;1.00;1.00;;;15.90;97.30;;;;;;5320806;26;20247;-88
2024/04/14 04:53:53;;;;;;;1.33;1.10;;;15.90;97.30;;;;;;5323979;26;20240;-87
2024/04/14 04:56:18;;;;;;;1.70;1.60;;;16.00;97.30;;;;;;5324296;26;21178;-87
2024/04/14 04:58:44;;;;;;;3.60;1.70;;;16.00;97.30;;;;;;5307822;27;20278;-87
2024/04/14 05:01:10;;;;;;;1.33;1.27;;;16.00;97.30;;;;;;5300600;26;20698;-87
2024/04/14 05:03:39;;;;;;;1.17;1.10;;;16.00;97.30;;;;;;5307344;26;20244;-87
2024/04/14 05:06:07;;;;;;;1.23;1.20;;;16.00;97.30;;;;;;5308430;26;20471;-87
2024/04/14 05:08:40;;;;;;;1.70;1.60;;;16.00;97.30;;;;;;5323742;26;20513;-89
2024/04/14 05:11:08;;;;;;;1.80;1.70;;;16.00;97.30;;;;;;5319481;26;20529;-89
2024/04/14 05:13:50;;;;;;;1.80;1.50;;;16.00;97.30;;;;;;5323908;26;20490;-87
2024/04/14 05:16:20;;;;;;;1.70;1.40;;;16.00;97.30;;;;;;5307819;26;20523;-86
2024/04/14 05:18:48;;;;;;;1.40;1.30;;;16.00;97.30;;;;;;5302032;26;20479;-89
2024/04/14 05:21:17;;;;;;;1.50;1.40;;;16.00;97.30;;;;;;5314119;26;20467;-87
2024/04/14 05:23:50;;;;;;;2.03;1.30;;;16.00;97.30;;;;;;5289073;27;20511;-87
2024/04/14 05:26:21;;;;;;;1.00;0.90;;;16.10;97.30;;;;;;5301987;26;20471;-92
2024/04/14 05:28:49;;;;;;;2.40;2.20;;;16.10;97.30;;;;;;5322277;26;20470;-87
2024/04/14 05:31:18;;;;;;;1.97;1.27;;;16.20;97.30;;;;;;5322155;26;21249;-87
2024/04/14 05:34:07;;;;;;;6.40;2.80;;;16.20;97.30;;;;;;5302910;26;20536;-87
2024/04/14 05:36:40;;;;;;;1.87;1.70;;;16.30;97.30;;;;;;5291250;26;20455;-87
2024/04/14 05:39:08;;;;;;;3.53;1.53;;;16.40;97.30;;;;;;5323726;26;20459;-87
2024/04/14 05:41:57;;;;;;;4.10;2.70;;;16.50;97.30;;;;;;5304135;26;20484;-87
2024/04/14 05:44:49;;;;;;;2.23;2.00;;;16.50;97.30;;;;;;5288197;26;20474;-90
2024/04/14 05:47:21;;;;;;;3.83;1.90;;;16.60;97.30;;;;;;5329201;26;20577;-90
2024/04/14 05:49:50;;;;;;;2.30;1.40;;;16.70;97.30;;;;;;5309389;26;20467;-88
2024/04/14 05:52:19;;;;;;;1.73;1.33;;;16.70;97.30;;;;;;5305909;26;20568;-87
2024/04/14 05:54:48;;;;;;;2.50;2.07;;;16.80;97.30;;;;;;5307893;26;20474;-87
2024/04/14 05:57:21;;;;;;;1.10;1.00;;;16.80;97.30;;;;;;5336621;26;20549;-86
2024/04/14 05:59:49;;;;;;;1.47;1.40;;;16.90;97.30;;;;;;5322876;26;20494;-88
2024/04/14 06:02:17;;;;;;;3.17;2.30;;;16.90;97.30;;;;;;5318478;26;20894;-86
2024/04/14 06:04:43;;;;;;;3.23;1.77;;;16.80;97.30;;;;;;5312853;26;20489;-87
2024/04/14 06:07:08;;;;;;;2.23;1.50;;;16.70;97.30;;;;;;5317089;26;20548;-86
2024/04/14 06:09:38;;;;;;;1.87;1.40;;;16.60;97.30;;;;;;5321139;26;20238;-86
2024/04/14 06:12:07;;;;;;;3.17;1.67;;;16.60;97.30;;;;;;5330074;26;20755;-87
2024/04/14 06:14:33;;;;;;;2.00;1.87;;;16.60;97.30;;;;;;5309185;26;20900;-86
2024/04/14 06:16:58;;;;;;;1.00;0.93;;;16.60;97.30;;;;;;5308681;26;20475;-89
2024/04/14 06:19:26;;;;;;;1.37;1.27;;;16.60;97.30;;;;;;5301806;26;20673;-86
2024/04/14 06:22:00;;;;;;;3.63;1.20;;;16.50;97.30;;;;;;5318780;26;20594;-89
2024/04/14 06:24:29;;;;;;;1.37;1.33;;;16.50;97.30;;;;;;5302202;26;21177;-86
2024/04/14 06:26:59;;;;;;;1.47;1.47;;;16.50;97.30;;;;;;5316454;26;20886;-87
2024/04/14 06:29:28;;;;;;;2.17;1.47;;;16.50;97.30;;;;;;5311159;26;20590;-86
2024/04/14 06:31:53;;;;;;;1.67;1.60;;;16.50;97.30;;;;;;5319180;26;20568;-86
2024/04/14 06:34:19;;;;;;;2.53;1.70;;;16.50;97.30;;;;;;5320134;26;21002;-87
2024/04/14 06:36:44;;;;;;;1.63;1.53;;;16.50;97.30;;;;;;5320614;26;20724;-87
2024/04/14 06:39:09;;;;;;;2.33;1.20;;;16.50;97.30;;;;;;5305968;26;20236;-86
2024/04/14 06:41:38;;;;;;;4.40;1.40;;;16.60;97.30;;;;;;5320069;26;20270;-85
2024/04/14 06:44:03;;;;;;;2.43;1.77;;;16.60;97.30;;;;;;5332501;26;20768;-87
2024/04/14 06:46:29;;;;;;;1.80;1.57;;;16.60;97.30;;;;;;5312084;26;20462;-87
2024/04/14 06:49:02;;;;;;;4.80;2.70;;;16.60;97.30;;;;;;5307532;26;20327;-87
2024/04/14 06:51:27;;;;;;;4.00;1.17;;;16.60;97.30;;;;;;5304303;26;20312;-87
2024/04/14 06:54:00;;;;;;;1.30;1.20;;;16.60;97.30;;;;;;5305817;26;20881;-89
2024/04/14 06:56:27;;;;;;;1.43;1.30;;;16.60;97.30;;;;;;5322404;26;20277;-87
2024/04/14 06:58:53;;;;;;;1.40;1.37;;;16.60;97.30;;;;;;5307853;26;20475;-87
2024/04/14 07:01:18;;;;;;;1.13;1.07;;;16.60;97.20;;;;;;5304895;26;20475;-87
2024/04/14 07:03:46;;;;;;;1.30;1.17;;;16.60;97.30;;;;;;5307918;26;20734;-87
2024/04/14 07:06:12;;;;;;;1.47;1.00;;;16.70;97.30;;;;;;5306269;26;20624;-87
2024/04/14 07:08:39;;;;;;;1.90;1.33;;;16.70;97.20;;;;;;5321503;26;20471;-87
2024/04/14 07:11:04;;;;;;;1.40;1.30;;;16.70;97.30;;;;;;5305947;26;20687;-88
2024/04/14 07:13:30;;;;;;;1.47;1.43;;;16.80;97.10;;;;;;5320980;26;20481;-86
2024/04/14 07:15:55;;;;;;;1.37;1.27;;;16.80;97.30;;;;;;5321837;26;20236;-88
2024/04/14 07:18:21;;;;;;;4.67;1.40;;;16.80;96.70;;;;;;5306224;26;20681;-87
2024/04/14 07:20:46;;;;;;;4.70;1.83;;;16.90;96.50;;;;;;5322125;26;20274;-86
2024/04/14 07:23:12;;;;;;;2.13;1.83;;;16.80;96.40;;;;;;5320060;26;20233;-87
2024/04/14 07:25:37;;;;;;;1.03;0.93;;;16.90;96.90;;;;;;5322068;26;20243;-88
2024/04/14 07:28:03;;;;;;;1.20;1.20;;;16.90;96.50;;;;;;5307506;27;20312;-88
2024/04/14 07:30:28;;;;;;;1.47;1.37;;;16.90;96.80;;;;;;5319591;26;20278;-88
2024/04/14 07:32:54;;;;;;;2.17;1.30;;;17.00;96.10;;;;;;5319959;26;20300;-86
2024/04/14 07:35:19;;;;;;;3.93;1.27;;;17.00;96.10;;;;;;5335587;26;20732;-88
2024/04/14 07:37:47;;;;;;;1.00;0.93;;;17.00;96.10;;;;;;5324208;26;20252;-86
2024/04/14 07:40:13;;;;;;;2.10;1.10;;;17.00;96.40;;;;;;5310818;26;20337;-86
2024/04/14 07:42:39;;;;;;;0.80;0.80;;;17.10;96.90;;;;;;5321969;26;20940;-87
2024/04/14 07:45:05;;;;;;;0.90;0.90;;;17.30;96.50;;;;;;5324914;26;20232;-86
2024/04/14 07:47:30;;;;;;;5.33;1.33;;;17.40;96.50;;;;;;5311046;26;20344;-86
2024/04/14 07:49:56;;;;;;;1.97;1.60;;;17.50;96.30;;;;;;5309762;26;20480;-87
2024/04/14 07:52:21;;;;;;;21.63;2.00;;;17.60;95.70;;;;;;5321344;26;20313;-86
2024/04/14 07:54:47;;;;;;;7.90;1.10;;;17.50;95.00;;;;;;5324082;26;20330;-86
2024/04/14 07:57:12;;;;;;;3.63;2.37;;;17.40;95.70;;;;;;5308811;26;20274;-85
2024/04/14 07:59:38;;;;;;;1.53;1.50;;;17.40;95.60;;;;;;5319040;26;20276;-86
2024/04/14 08:02:03;;;;;;;1.97;1.00;;;17.40;95.10;;;;;;5329216;26;20677;-87
2024/04/14 08:04:29;;;;;;;4.20;2.93;;;17.40;95.20;;;;;;5327775;26;20235;-85
2024/04/14 08:06:54;;;;;;;4.47;2.17;;;17.60;95.10;;;;;;5307919;26;20244;-87
2024/04/14 08:09:20;;;;;;;3.37;1.87;;;17.70;94.90;;;;;;5310113;26;20331;-86
2024/04/14 08:11:46;;;;;;;1.80;1.70;;;17.80;95.10;;;;;;5312024;26;20258;-85
2024/04/14 08:14:13;;;;;;;1.10;1.03;;;17.90;94.90;;;;;;5317445;26;20607;-89
2024/04/14 08:16:39;;;;;;;2.80;2.17;;;18.00;94.60;;;;;;5310278;26;20240;-86
2024/04/14 08:19:05;;;;;;;1.70;1.20;;;18.20;94.80;;;;;;5329760;26;20525;-86
2024/04/14 08:21:30;;;;;;;1.47;1.20;;;18.30;94.70;;;;;;5327588;26;20474;-86
2024/04/14 08:23:56;;;;;;;1.90;1.53;;;18.30;94.70;;;;;;5308615;26;20266;-85
2024/04/14 08:26:21;;;;;;;4.30;2.07;;;18.40;95.40;;;;;;5322800;26;20231;-86
2024/04/14 08:28:47;;;;;;;3.83;3.03;;;18.40;94.20;;;;;;5309505;26;20337;-87
2024/04/14 08:31:13;;;;;;;1.87;1.80;;;18.50;94.70;;;;;;5322008;26;21044;-86
2024/04/14 08:33:39;;;;;;;1.80;1.77;;;18.40;94.80;;;;;;5318356;26;20232;-86
2024/04/14 08:36:04;;;;;;;5.67;1.63;;;18.40;95.40;;;;;;5316060;26;20245;-86
2024/04/14 08:38:30;;;;;;;1.00;0.90;;;18.40;94.10;;;;;;5290513;26;20509;-84
2024/04/14 08:40:59;;;;;;;1.43;1.33;;;18.40;93.70;;;;;;5315724;26;20317;-86
2024/04/14 08:43:25;;;;;;;1.90;1.40;;;18.40;94.40;;;;;;5342283;26;20243;-88
2024/04/14 08:45:51;;;;;;;3.20;2.03;;;18.30;95.00;;;;;;5306972;26;20981;-86
2024/04/14 08:48:20;;;;;;;2.77;1.83;;;18.30;95.10;;;;;;5323331;26;20232;-86
2024/04/14 08:50:47;;;;;;;2.37;1.80;;;18.20;95.00;;;;;;5305242;26;20484;-86
2024/04/14 08:53:15;;;;;;;2.60;1.37;;;18.00;94.00;;;;;;5315789;26;20549;-86
2024/04/14 08:55:42;;;;;;;3.27;1.30;;;17.90;93.90;;;;;;5314796;26;20467;-86
2024/04/14 08:58:09;;;;;;;1.50;1.40;;;17.90;94.30;;;;;;5320640;26;20467;-86
2024/04/14 09:00:37;;;;;;;1.57;1.00;;;18.00;94.70;;;;;;5321021;26;20477;-87
2024/04/14 09:03:03;;;;;;;1.93;1.40;;;18.00;93.90;;;;;;5313016;26;20525;-88
2024/04/14 09:05:28;;;;;;;4.87;2.17;;;18.10;94.70;;;;;;5313386;26;20595;-86
2024/04/14 09:07:56;;;;;;;1.37;1.30;;;18.20;94.30;;;;;;5323046;26;20460;-86
2024/04/14 09:10:26;;;;;;;1.43;1.40;;;18.30;94.70;;;;;;5306857;26;20270;-86
2024/04/14 09:12:53;;;;;;;1.43;1.33;;;18.30;94.70;;;;;;5304848;26;20470;-86
2024/04/14 09:15:19;;;;;;;1.63;1.30;;;18.40;94.70;;;;;;5318486;26;20477;-87
2024/04/14 09:17:45;;;;;;;1.33;0.70;;;18.40;94.10;;;;;;5338640;26;20473;-86
2024/04/14 09:20:10;;;;;;;1.77;1.67;;;18.30;94.00;;;;;;5321710;26;20266;-85
2024/04/14 09:22:38;;;;;;;12.23;2.23;;;18.20;94.30;;;;;;5335556;26;20299;-86
2024/04/14 09:25:07;;;;;;;3.07;2.03;;;18.20;94.70;;;;;;5323538;26;20228;-85
2024/04/14 09:27:36;;;;;;;1.27;1.20;;;18.30;94.40;;;;;;5323482;26;20470;-89
2024/04/14 09:30:19;;;;;;;1.40;1.30;;;18.30;94.00;;;;;;5302119;26;20465;-88
2024/04/14 09:32:46;;;;;;;3.20;1.20;;;18.30;94.00;;;;;;5325620;26;20882;-87
2024/04/14 09:35:12;;;;;;;1.60;1.30;;;18.30;94.50;;;;;;5319781;26;20534;-86
2024/04/14 09:37:39;;;;;;;1.67;1.60;;;18.40;93.50;;;;;;5313449;26;20922;-87
2024/04/14 09:40:10;;;;;;;3.57;2.27;;;18.50;94.10;;;;;;5320967;26;20494;-87
2024/04/14 09:42:38;;;;;;;1.80;1.67;;;18.50;93.60;;;;;;5304990;26;21123;-84
2024/04/14 09:45:05;;;;;;;5.27;2.70;;;18.40;93.60;;;;;;5315261;26;21014;-87
2024/04/14 09:47:30;;;;;;;2.30;2.17;;;18.40;94.20;;;;;;5313346;26;20916;-88
2024/04/14 09:49:57;;;;;;;3.73;2.13;;;18.40;94.10;;;;;;5306251;26;20515;-88
2024/04/14 09:52:23;;;;;;;1.40;1.30;;;18.30;94.00;;;;;;5306702;26;20287;-86
2024/04/14 09:54:50;;;;;;;1.93;1.43;;;18.30;93.00;;;;;;5320826;26;20485;-86
2024/04/14 09:57:16;;;;;;;1.33;1.23;;;18.30;93.60;;;;;;5317560;26;21019;-86
2024/04/14 09:59:41;;;;;;;4.63;2.13;;;18.20;92.60;;;;;;5313373;26;20596;-87
2024/04/14 10:02:12;;;;;;;2.27;2.07;;;18.20;92.10;;;;;;5321312;26;20236;-86
2024/04/14 10:04:44;;;;;;;1.23;1.13;;;18.30;93.10;;;;;;5321540;26;20286;-85
2024/04/14 10:07:12;;;;;;;1.13;1.03;;;18.40;92.50;;;;;;5322833;26;20539;-87
2024/04/14 10:09:37;;;;;;;2.30;2.10;;;18.40;91.90;;;;;;5306583;26;20598;-85
2024/04/14 10:12:03;;;;;;;1.60;1.50;;;18.50;92.60;;;;;;5311335;26;20489;-89
2024/04/14 10:14:39;;;;;;;1.20;1.10;;;18.80;92.80;;;;;;5316080;26;20287;-88
2024/04/14 10:17:06;;;;;;;1.83;1.63;;;19.10;91.60;;;;;;5372243;21;20538;-87
2024/04/14 10:19:34;;;;;;;2.00;0.97;;;19.00;90.80;;;;;;5342385;26;20446;-86
2024/04/14 10:22:01;;;;;;;1.47;1.00;;;19.00;91.40;;;;;;5338922;26;20515;-87
2024/04/14 10:24:29;;;;;;;0.90;0.80;;;18.90;90.30;;;;;;5342208;26;20512;-87
2024/04/14 10:27:05;;;;;;;1.00;0.90;;;18.80;89.50;;;;;;5338903;21;20571;-59
2024/04/14 10:29:31;;;;;;;4.83;1.80;;;18.80;91.00;;;;;;5289371;27;20482;-59
2024/04/14 10:31:57;;;;;;;1.00;0.90;;;19.00;91.20;;;;;;5271517;26;20468;-63
2024/04/14 10:34:23;;;;;;;1.00;0.90;;;19.10;88.90;;;;;;5270498;27;20525;-62
2024/04/14 10:36:58;;;;;;;1.83;1.20;;;19.00;89.00;;;;;;5272911;27;20279;-59
2024/04/14 10:39:24;;;;;;;1.83;1.73;;;19.10;90.60;;;;;;5283327;26;20549;-58
2024/04/14 10:41:50;;;;;;;1.37;1.27;;;19.10;89.00;;;;;;5301001;27;20475;-59
2024/04/14 10:44:16;;;;;;;1.27;1.27;;;19.10;88.50;;;;;;5281850;26;20233;-58
2024/04/14 10:46:42;;;;;;;1.00;0.90;;;19.00;89.00;;;;;;5282905;27;20240;-58
2024/04/14 10:49:08;;;;;;;1.80;1.70;;;19.00;89.50;;;;;;5296129;26;20316;-59
2024/04/14 10:51:35;;;;;;;2.07;1.93;;;19.10;90.30;;;;;;5270066;27;20561;-59
2024/04/14 10:54:01;;;;;;;2.43;2.23;;;19.20;90.60;;;;;;5298170;27;20464;-59
2024/04/14 10:56:27;;;;;;;3.27;1.10;;;19.30;90.20;;;;;;5268407;27;20528;-58
2024/04/14 10:58:53;;;;;;;1.27;1.17;;;19.30;88.60;;;;;;5270025;27;20472;-59
2024/04/14 11:01:18;;;;;;;8.73;1.03;;;19.40;88.70;;;;;;5292985;27;20542;-58
2024/04/14 11:03:45;;;;;;;1.17;1.03;;;19.30;88.20;;;;;;5287261;27;20724;-60
2024/04/14 11:06:11;;;;;;;1.63;1.53;;;19.10;88.50;;;;;;5284012;27;20229;-60
2024/04/14 11:08:38;;;;;;;1.20;1.10;;;19.10;88.90;;;;;;5295932;27;20455;-59
2024/04/14 11:11:04;;;;;;;0.80;0.80;;;19.10;88.90;;;;;;5287733;26;20476;-58
2024/04/14 11:13:31;;;;;;;1.63;1.30;;;19.10;89.70;;;;;;5286282;27;20472;-59
2024/04/14 11:15:57;;;;;;;1.57;1.50;;;19.20;89.40;;;;;;5276905;27;20561;-59
2024/04/14 11:18:29;;;;;;;1.33;1.00;;;19.20;88.90;;;;;;5293064;26;20462;-59
2024/04/14 11:20:55;;;;;;;1.83;1.40;;;19.10;89.90;;;;;;5273762;26;20905;-58
2024/04/14 11:23:21;;;;;;;1.37;1.30;;;19.10;90.20;;;;;;5296319;27;20467;-59
2024/04/14 11:25:51;;;;;;;1.40;1.30;;;19.00;88.70;;;;;;5277172;26;20237;-59
2024/04/14 11:28:18;;;;;;;1.30;1.10;;;18.90;89.80;;;;;;5273240;27;21098;-59
2024/04/14 11:30:43;;;;;;;1.30;1.20;;;19.10;90.50;;;;;;5285052;27;20458;-58
2024/04/14 11:33:09;;;;;;;1.20;1.00;;;19.30;89.30;;;;;;5278928;27;20596;-59
2024/04/14 11:35:36;;;;;;;1.80;1.63;;;19.30;89.20;;;;;;5281072;26;20233;-59
2024/04/14 11:38:05;;;;;;;2.90;1.90;;;19.10;89.40;;;;;;5289596;27;20818;-59
2024/04/14 11:40:31;;;;;;;1.43;1.37;;;19.10;89.10;;;;;;5305043;26;20482;-58
2024/04/14 11:42:57;;;;;;;1.73;1.43;;;19.30;89.10;;;;;;5303434;26;20459;-60
2024/04/14 11:45:22;;;;;;;1.00;0.90;;;19.40;88.20;;;;;;5294813;27;20654;-60
2024/04/14 11:47:48;;;;;;;6.23;2.07;;;19.70;88.00;;;;;;5305011;26;20724;-59
2024/04/14 11:50:13;;;;;;;2.70;2.47;;;19.90;86.80;;;;;;5285326;27;20736;-58
2024/04/14 11:52:39;;;;;;;1.00;0.90;;;19.70;87.90;;;;;;5294017;26;20713;-62
2024/04/14 11:55:08;;;;;;;1.57;1.50;;;19.60;88.50;;;;;;5291870;27;20630;-59
2024/04/14 11:57:37;;;;;;;1.70;1.60;;;19.30;87.80;;;;;;5292849;26;20670;-60
2024/04/14 12:00:03;;;;;;;1.50;1.40;;;19.40;88.00;;;;;;5301585;26;20483;-60
2024/04/14 12:02:29;;;;;;;4.93;1.03;;;19.60;87.40;;;;;;5281418;27;20534;-59
2024/04/14 12:04:55;;;;;;;3.63;2.23;;;20.00;87.00;;;;;;5290515;26;20578;-63
2024/04/14 12:07:20;;;;;;;1.17;1.10;;;20.20;86.10;;;;;;5295044;27;20451;-59
2024/04/14 12:09:47;;;;;;;1.53;1.43;;;20.40;85.80;;;;;;5292647;26;20233;-59
2024/04/14 12:12:14;;;;;;;1.23;1.13;;;20.30;85.80;;;;;;5285954;26;20237;-59
2024/04/14 12:14:40;;;;;;;1.90;1.17;;;20.10;85.70;;;;;;5285272;27;20525;-59
2024/04/14 12:17:07;;;;;;;1.17;1.07;;;20.20;85.00;;;;;;5306182;26;20570;-59
2024/04/14 12:19:32;;;;;;;1.00;0.90;;;20.10;85.20;;;;;;5293932;26;20476;-59
2024/04/14 12:21:58;;;;;;;1.43;1.33;;;20.00;85.80;;;;;;5289045;27;20531;-60
2024/04/14 12:24:25;;;;;;;4.00;1.57;;;19.90;85.30;;;;;;5304867;27;20236;-59
2024/04/14 12:26:50;;;;;;;0.90;0.90;;;19.80;83.90;;;;;;5303999;26;20287;-58
2024/04/14 12:29:17;;;;;;;4.90;1.87;;;19.80;84.50;;;;;;5306357;26;20470;-58
2024/04/14 12:31:43;;;;;;;0.90;0.80;;;19.90;83.80;;;;;;5293214;26;20307;-58
2024/04/14 12:34:09;;;;;;;8.00;1.30;;;19.90;83.20;;;;;;5292011;27;20471;-58
2024/04/14 12:36:35;;;;;;;1.20;1.10;;;19.90;83.30;;;;;;5292875;26;20338;-59
2024/04/14 12:39:00;;;;;;;1.93;0.90;;;19.80;83.90;;;;;;5304773;27;20538;-58
2024/04/14 12:41:26;;;;;;;0.90;0.83;;;19.90;82.50;;;;;;5305577;26;20349;-59
2024/04/14 12:43:51;;;;;;;1.10;1.00;;;20.10;82.50;;;;;;5289822;27;20244;-59
2024/04/14 12:46:17;;;;;;;1.27;1.07;;;20.30;84.20;;;;;;5292565;27;20240;-58
2024/04/14 12:48:45;;;;;;;1.00;0.90;;;20.50;82.40;;;;;;5292859;26;20271;-60
2024/04/14 12:51:11;;;;;;;1.40;1.33;;;20.80;82.30;;;;;;5287001;26;20528;-59
2024/04/14 12:53:36;;;;;;;3.23;0.90;;;20.80;81.30;;;;;;5298247;27;20540;-59
2024/04/14 12:56:02;;;;;;;8.00;1.23;;;20.80;81.50;;;;;;5287284;26;20521;-58
2024/04/14 12:58:27;;;;;;;1.67;1.40;;;20.90;81.50;;;;;;5272835;27;20287;-60
2024/04/14 13:00:57;;;;;;;0.80;0.80;;;21.00;80.70;;;;;;5300873;27;20232;-59
2024/04/14 13:03:23;;;;;;;1.00;0.90;;;21.00;81.60;;;;;;5299155;26;20878;-60
2024/04/14 13:05:50;;;;;;;1.17;1.07;;;20.80;81.10;;;;;;5272336;27;20464;-59
2024/04/14 13:08:16;;;;;;;1.00;0.90;;;20.60;81.70;;;;;;5276510;27;20514;-59
2024/04/14 13:10:42;;;;;;;1.17;1.13;;;20.40;82.10;;;;;;5304414;27;20478;-60
2024/04/14 13:13:09;;;;;;;0.90;0.90;;;20.40;81.60;;;;;;5291411;26;20511;-59
2024/04/14 13:15:34;;;;;;;0.90;0.80;;;20.30;81.70;;;;;;5305958;26;20239;-58
2024/04/14 13:18:00;;;;;;;2.60;2.00;;;20.20;81.30;;;;;;5289048;26;20591;-59
2024/04/14 13:20:25;;;;;;;4.77;1.43;;;20.00;81.50;;;;;;5284167;27;20253;-59
2024/04/14 13:22:51;;;;;;;6.73;0.80;;;20.00;82.40;;;;;;5284516;27;20764;-59
2024/04/14 13:25:17;;;;;;;3.27;1.60;;;20.30;82.40;;;;;;5300387;26;20236;-61
2024/04/14 13:27:42;;;;;;;0.90;0.83;;;20.60;81.10;;;;;;5297667;27;20247;-58
2024/04/14 13:30:08;;;;;;;1.00;0.90;;;20.50;81.10;;;;;;5303649;27;20248;-59
2024/04/14 13:32:33;;;;;;;1.20;1.10;;;20.20;81.50;;;;;;5304525;26;20244;-61
2024/04/14 13:34:59;;;;;;;1.53;1.43;;;19.80;81.40;;;;;;5291068;26;20366;-59
2024/04/14 13:37:24;;;;;;;3.73;1.33;;;19.70;82.40;;;;;;5285669;26;20279;-59
2024/04/14 13:39:50;;;;;;;0.97;0.87;;;19.70;82.00;;;;;;5299328;27;20349;-61
2024/04/14 13:42:16;;;;;;;1.20;1.10;;;19.60;82.40;;;;;;5297233;27;20241;-59
2024/04/14 13:44:45;;;;;;;6.73;1.83;;;19.80;82.30;;;;;;5297026;27;20228;-60
2024/04/14 13:47:11;;;;;;;3.37;1.60;;;20.00;83.20;;;;;;5300303;26;20232;-60
2024/04/14 13:49:37;;;;;;;0.93;0.83;;;20.20;81.00;;;;;;5295765;27;20455;-59
2024/04/14 13:52:03;;;;;;;1.17;1.13;;;20.40;81.70;;;;;;5304464;26;20874;-59
2024/04/14 13:54:32;;;;;;;0.90;0.80;;;20.40;80.50;;;;;;5303401;27;20486;-59
2024/04/14 13:56:58;;;;;;;1.63;1.53;;;20.20;80.30;;;;;;5304568;26;20475;-59
2024/04/14 13:59:25;;;;;;;1.03;0.93;;;19.80;80.30;;;;;;5304998;26;20511;-59
2024/04/14 14:01:50;;;;;;;0.90;0.70;;;19.60;80.40;;;;;;5291199;26;20349;-59
2024/04/14 14:04:17;;;;;;;1.10;1.03;;;19.50;80.70;;;;;;5304368;27;20463;-60
2024/04/14 14:06:43;;;;;;;0.90;0.80;;;19.30;80.30;;;;;;5290816;26;20232;-60
2024/04/14 14:09:11;;;;;;;1.20;0.90;;;19.20;81.30;;;;;;5304510;26;21054;-59
2024/04/14 14:11:37;;;;;;;1.53;1.23;;;19.40;80.50;;;;;;5294671;26;20291;-62
2024/04/14 14:14:06;;;;;;;1.37;1.33;;;20.00;82.60;;;;;;5299009;27;20998;-62
2024/04/14 14:16:33;;;;;;;0.70;0.70;;;20.50;79.60;;;;;;5294398;27;20523;-60
2024/04/14 14:18:59;;;;;;;1.20;1.00;;;20.70;78.00;;;;;;5299534;27;20581;-59
2024/04/14 14:21:24;;;;;;;1.03;0.90;;;20.70;78.30;;;;;;5283702;26;21032;-61
2024/04/14 14:23:50;;;;;;;10.50;2.10;;;20.70;77.30;;;;;;5297559;27;20227;-60
2024/04/14 14:26:15;;;;;;;1.30;1.13;;;20.30;78.30;;;;;;5290296;26;20236;-60
2024/04/14 14:28:42;;;;;;;1.03;0.80;;;20.10;79.00;;;;;;5288571;27;20274;-61
2024/04/14 14:31:08;;;;;;;1.07;0.97;;;19.80;78.70;;;;;;5304433;26;20300;-61
2024/04/14 14:36:28;;;;;;;0.90;0.80;;;19.30;81.20;;;;;;5304467;27;20316;-59
2024/04/14 14:38:55;;;;;;;1.00;1.00;;;19.20;80.40;;;;;;5303959;26;21010;-60
2024/04/14 14:41:22;;;;;;;0.90;0.80;;;19.20;79.30;;;;;;5288660;27;20880;-59
2024/04/14 14:43:47;;;;;;;0.70;0.70;;;19.10;80.60;;;;;;5304132;26;20552;-59
2024/04/14 14:46:13;;;;;;;1.43;1.13;;;18.90;79.40;;;;;;5293164;26;20482;-59
2024/04/14 14:48:38;;;;;;;1.77;1.23;;;18.90;79.20;;;;;;5307678;26;20248;-59
2024/04/14 14:51:04;;;;;;;0.90;0.80;;;18.90;80.10;;;;;;5277509;27;20245;-59
2024/04/14 14:53:29;;;;;;;0.90;0.80;;;19.00;79.10;;;;;;5285415;26;20241;-59
2024/04/14 14:55:55;;;;;;;0.90;0.80;;;19.10;79.20;;;;;;5301283;27;20623;-60
2024/04/14 14:58:20;;;;;;;1.63;1.30;;;19.80;78.20;;;;;;5306878;26;20338;-60
2024/04/14 15:00:46;;;;;;;0.90;0.80;;;20.00;77.80;;;;;;5296146;26;20237;-59
2024/04/14 15:03:11;;;;;;;0.90;0.80;;;19.50;76.90;;;;;;5290825;27;20224;-58
2024/04/14 15:05:37;;;;;;;1.00;1.00;;;19.00;77.80;;;;;;5305558;27;20593;-60
2024/04/14 15:08:03;;;;;;;0.77;0.73;;;18.80;78.10;;;;;;5305145;26;20236;-60
2024/04/14 15:10:52;;;;;;;0.90;0.80;;;18.80;79.30;;;;;;5307092;26;20232;-61
2024/04/14 15:13:18;;;;;;;0.87;0.80;;;18.80;80.20;;;;;;5277059;27;20825;-58
2024/04/14 15:15:57;;;;;;;5.00;1.27;;;18.70;79.00;;;;;;5305284;27;20479;-59
2024/04/14 15:18:26;;;;;;;0.90;0.80;;;18.50;79.40;;;;;;5271184;26;20257;-59
2024/04/14 15:20:52;;;;;;;2.03;1.77;;;18.50;80.00;;;;;;5286173;27;20543;-60
2024/04/14 15:23:18;;;;;;;6.00;1.27;;;18.50;79.90;;;;;;5306416;26;20824;-60
2024/04/14 15:25:43;;;;;;;0.70;0.70;;;18.60;79.10;;;;;;5296677;26;20515;-59
2024/04/14 15:28:10;;;;;;;14.57;2.17;;;18.70;79.10;;;;;;5301440;27;20240;-60
2024/04/14 15:30:35;;;;;;;0.70;0.70;;;18.80;79.70;;;;;;5305257;27;20316;-60
2024/04/14 15:33:01;;;;;;;1.50;1.40;;;18.90;79.50;;;;;;5306825;26;20463;-60
2024/04/14 15:35:27;;;;;;;1.00;1.00;;;18.90;79.80;;;;;;5299073;26;20729;-59
2024/04/14 15:37:52;;;;;;;1.13;1.10;;;18.80;79.10;;;;;;5297051;27;20634;-60
2024/04/14 15:40:18;;;;;;;0.93;0.93;;;18.70;80.50;;;;;;5306914;26;20712;-59
2024/04/14 15:42:46;;;;;;;0.90;0.80;;;18.40;79.80;;;;;;5305507;26;20266;-61
2024/04/14 15:45:11;;;;;;;0.90;0.80;;;18.20;80.70;;;;;;5305424;26;20240;-60
2024/04/14 15:47:37;;;;;;;0.87;0.80;;;18.10;81.40;;;;;;5296158;26;20569;-59
2024/04/14 15:50:03;;;;;;;21.43;2.03;;;18.00;80.90;;;;;;5271912;27;20959;-60
2024/04/14 15:52:28;;;;;;;4.40;1.10;;;18.00;82.50;;;;;;5279143;27;20236;-60
2024/04/14 15:54:54;;;;;;;1.17;1.00;;;18.00;81.50;;;;;;5280414;26;20812;-59
2024/04/14 15:57:19;;;;;;;16.37;1.17;;;17.80;82.20;;;;;;5288727;27;20236;-60
2024/04/14 15:59:45;;;;;;;0.70;0.70;;;17.70;82.30;;;;;;5296738;26;20272;-59
2024/04/14 16:02:10;;;;;;;1.63;1.00;;;17.50;82.30;;;;;;5300975;27;20282;-59
2024/04/14 16:04:36;;;;;;;1.63;1.07;;;17.40;82.20;;;;;;5280957;27;20327;-58
2024/04/14 16:07:02;;;;;;;1.40;1.30;;;17.30;83.10;;;;;;5307334;26;20232;-60
2024/04/14 16:09:27;;;;;;;1.10;0.90;;;17.30;82.40;;;;;;5306742;26;20278;-60
2024/04/14 16:11:53;;;;;;;0.93;0.83;;;17.20;83.30;;;;;;5279347;26;20280;-60
2024/04/14 16:14:18;;;;;;;1.47;1.20;;;17.20;82.60;;;;;;5290256;27;20275;-59
2024/04/14 16:19:14;;;;;;;3.47;1.90;;;17.20;82.40;;;;;;5318586;26;20287;-59
2024/04/14 16:21:41;;;;;;;1.20;1.10;;;17.20;82.20;;;;;;5283872;26;20517;-61
2024/04/14 16:24:07;;;;;;;1.00;0.90;;;17.10;82.60;;;;;;5287229;27;20514;-59
2024/04/14 16:26:33;;;;;;;1.00;0.90;;;17.00;82.50;;;;;;5269144;27;20621;-59
2024/04/14 16:29:00;;;;;;;0.90;0.80;;;16.90;82.50;;;;;;5275665;26;20894;-60
2024/04/14 16:31:27;;;;;;;1.77;1.47;;;16.90;83.00;;;;;;5301026;26;20717;-59
2024/04/14 16:33:52;;;;;;;0.90;0.80;;;16.90;83.70;;;;;;5286079;27;20532;-59
2024/04/14 16:36:18;;;;;;;0.90;0.80;;;16.80;83.90;;;;;;5303666;27;20458;-58
2024/04/14 16:38:44;;;;;;;1.47;1.37;;;16.60;83.10;;;;;;5296045;27;20237;-60
2024/04/14 16:41:10;;;;;;;1.00;0.90;;;16.50;84.10;;;;;;5301443;26;20232;-61
2024/04/14 16:43:35;;;;;;;1.10;1.00;;;16.40;84.10;;;;;;5299168;26;20235;-60
2024/04/14 16:46:01;;;;;;;5.03;1.30;;;16.40;84.50;;;;;;5299441;27;20459;-60
2024/04/14 16:48:26;;;;;;;3.90;1.27;;;16.30;84.80;;;;;;5305657;26;20601;-61
2024/04/14 16:50:52;;;;;;;1.57;1.30;;;16.30;84.50;;;;;;5275866;27;20291;-59